sensor_id;sensor_type;location;lat;lon;timestamp;P1;durP1;ratioP1;P2;durP2;ratioP2
6787;SDS011;3431;47.966;10.268;2023-08-01T00:00:02;2.05;;;1.88;;
6787;SDS011;3431;47.966;10.268;2023-08-01T00:00:33;2.00;;;1.85;;
6787;SDS011;3431;47.966;10.268;2023-08-01T00:00:56;2.23;;;2.00;;
6787;SDS011;3431;47.966;10.268;2023-08-01T00:01:17;2.10;;;1.90;;
6787;SDS011;3431;47.966;10.268;2023-08-01T00:01:39;2.28;;;1.98;;
6787;SDS011;3431;47.966;10.268;2023-08-01T00:02:00;2.20;;;2.00;;
6787;SDS011;3431;47.966;10.268;2023-08-01T00:02:22;2.00;;;1.90;;
6787;SDS011;3431;47.966;10.268;2023-08-01T00:02:43;3.88;;;2.10;;
6787;SDS011;3431;47.966;10.268;2023-08-01T00:03:06;2.08;;;1.80;;
6787;SDS011;3431;47.966;10.268;2023-08-01T00:03:27;2.40;;;2.10;;
6787;SDS011;3431;47.966;10.268;2023-08-01T00:03:49;2.25;;;2.05;;
6787;SDS011;3431;47.966;10.268;2023-08-01T00:04:10;2.22;;;2.00;;
6787;SDS011;3431;47.966;10.268;2023-08-01T00:04:32;2.78;;;2.03;;
6787;SDS011;3431;47.966;10.268;2023-08-01T00:04:54;2.58;;;2.38;;
6787;SDS011;3431;47.966;10.268;2023-08-01T00:05:16;2.63;;;2.33;;
6787;SDS011;3431;47.966;10.268;2023-08-01T00:05:37;3.00;;;2.25;;
6787;SDS011;3431;47.966;10.268;2023-08-01T00:06:00;2.95;;;2.15;;
6787;SDS011;3431;47.966;10.268;2023-08-01T00:06:21;2.60;;;2.08;;
6787;SDS011;3431;47.966;10.268;2023-08-01T00:06:45;2.17;;;1.98;;
6787;SDS011;3431;47.966;10.268;2023-08-01T00:07:08;2.45;;;2.20;;
6787;SDS011;3431;47.966;10.268;2023-08-01T00:07:29;2.28;;;1.90;;
6787;SDS011;3431;47.966;10.268;2023-08-01T00:07:51;2.30;;;1.90;;
6787;SDS011;3431;47.966;10.268;2023-08-01T00:08:13;3.70;;;2.10;;
6787;SDS011;3431;47.966;10.268;2023-08-01T00:08:35;2.70;;;1.92;;
6787;SDS011;3431;47.966;10.268;2023-08-01T00:08:56;2.30;;;2.08;;
6787;SDS011;3431;47.966;10.268;2023-08-01T00:09:20;2.45;;;2.10;;
6787;SDS011;3431;47.966;10.268;2023-08-01T00:09:42;2.33;;;2.13;;
6787;SDS011;3431;47.966;10.268;2023-08-01T00:10:03;2.72;;;2.50;;
6787;SDS011;3431;47.966;10.268;2023-08-01T00:10:27;2.17;;;1.98;;
6787;SDS011;3431;47.966;10.268;2023-08-01T00:10:48;1.92;;;1.83;;
6787;SDS011;3431;47.966;10.268;2023-08-01T00:11:13;2.42;;;2.05;;
6787;SDS011;3431;47.966;10.268;2023-08-01T00:11:36;2.15;;;1.90;;
6787;SDS011;3431;47.966;10.268;2023-08-01T00:11:58;2.13;;;1.92;;
6787;SDS011;3431;47.966;10.268;2023-08-01T00:12:19;2.47;;;2.03;;
6787;SDS011;3431;47.966;10.268;2023-08-01T00:12:41;2.83;;;2.15;;
6787;SDS011;3431;47.966;10.268;2023-08-01T00:13:03;3.10;;;2.00;;
6787;SDS011;3431;47.966;10.268;2023-08-01T00:13:25;2.15;;;1.98;;
6787;SDS011;3431;47.966;10.268;2023-08-01T00:13:47;3.38;;;2.38;;
6787;SDS011;3431;47.966;10.268;2023-08-01T00:14:08;2.83;;;2.13;;
6787;SDS011;3431;47.966;10.268;2023-08-01T00:14:30;2.38;;;1.95;;
6787;SDS011;3431;47.966;10.268;2023-08-01T00:14:51;2.50;;;1.95;;
6787;SDS011;3431;47.966;10.268;2023-08-01T00:15:13;3.15;;;1.98;;
6787;SDS011;3431;47.966;10.268;2023-08-01T00:15:36;3.15;;;1.90;;
6787;SDS011;3431;47.966;10.268;2023-08-01T00:15:57;2.10;;;1.90;;
6787;SDS011;3431;47.966;10.268;2023-08-01T00:16:19;2.10;;;1.90;;
6787;SDS011;3431;47.966;10.268;2023-08-01T00:16:40;2.20;;;2.00;;
6787;SDS011;3431;47.966;10.268;2023-08-01T00:17:03;2.13;;;1.92;;
6787;SDS011;3431;47.966;10.268;2023-08-01T00:17:25;3.25;;;1.98;;
6787;SDS011;3431;47.966;10.268;2023-08-01T00:17:46;2.40;;;2.10;;
6787;SDS011;3431;47.966;10.268;2023-08-01T00:18:08;3.45;;;2.40;;
6787;SDS011;3431;47.966;10.268;2023-08-01T00:18:29;2.58;;;2.10;;
6787;SDS011;3431;47.966;10.268;2023-08-01T00:18:52;2.40;;;2.20;;
6787;SDS011;3431;47.966;10.268;2023-08-01T00:19:13;2.20;;;2.00;;
6787;SDS011;3431;47.966;10.268;2023-08-01T00:19:35;2.15;;;2.00;;
6787;SDS011;3431;47.966;10.268;2023-08-01T00:19:57;2.13;;;2.00;;
6787;SDS011;3431;47.966;10.268;2023-08-01T00:20:18;2.50;;;2.30;;
6787;SDS011;3431;47.966;10.268;2023-08-01T00:20:41;3.10;;;2.45;;
6787;SDS011;3431;47.966;10.268;2023-08-01T00:21:02;2.25;;;2.05;;
6787;SDS011;3431;47.966;10.268;2023-08-01T00:21:26;2.05;;;1.88;;
6787;SDS011;3431;47.966;10.268;2023-08-01T00:21:47;2.00;;;1.90;;
6787;SDS011;3431;47.966;10.268;2023-08-01T00:22:09;2.35;;;2.15;;
6787;SDS011;3431;47.966;10.268;2023-08-01T00:22:30;2.40;;;2.10;;
6787;SDS011;3431;47.966;10.268;2023-08-01T00:22:53;3.42;;;2.00;;
6787;SDS011;3431;47.966;10.268;2023-08-01T00:23:14;2.80;;;2.20;;
6787;SDS011;3431;47.966;10.268;2023-08-01T00:23:36;2.50;;;2.30;;
6787;SDS011;3431;47.966;10.268;2023-08-01T00:23:57;2.55;;;2.35;;
6787;SDS011;3431;47.966;10.268;2023-08-01T00:24:20;2.90;;;2.10;;
6787;SDS011;3431;47.966;10.268;2023-08-01T00:24:43;3.35;;;2.10;;
6787;SDS011;3431;47.966;10.268;2023-08-01T00:25:05;2.55;;;2.08;;
6787;SDS011;3431;47.966;10.268;2023-08-01T00:25:27;3.13;;;2.22;;
6787;SDS011;3431;47.966;10.268;2023-08-01T00:25:49;2.33;;;2.13;;
6787;SDS011;3431;47.966;10.268;2023-08-01T00:26:12;2.50;;;2.30;;
6787;SDS011;3431;47.966;10.268;2023-08-01T00:26:34;2.65;;;2.45;;
6787;SDS011;3431;47.966;10.268;2023-08-01T00:26:56;2.27;;;2.07;;
6787;SDS011;3431;47.966;10.268;2023-08-01T00:27:18;3.83;;;2.30;;
6787;SDS011;3431;47.966;10.268;2023-08-01T00:27:39;2.83;;;2.20;;
6787;SDS011;3431;47.966;10.268;2023-08-01T00:28:01;4.13;;;2.30;;
6787;SDS011;3431;47.966;10.268;2023-08-01T00:28:22;3.03;;;2.20;;
6787;SDS011;3431;47.966;10.268;2023-08-01T00:28:45;2.67;;;2.17;;
6787;SDS011;3431;47.966;10.268;2023-08-01T00:29:07;2.25;;;2.00;;
6787;SDS011;3431;47.966;10.268;2023-08-01T00:29:29;2.53;;;2.10;;
6787;SDS011;3431;47.966;10.268;2023-08-01T00:29:51;3.42;;;2.40;;
6787;SDS011;3431;47.966;10.268;2023-08-01T00:30:12;3.20;;;2.53;;
6787;SDS011;3431;47.966;10.268;2023-08-01T00:30:35;2.70;;;2.40;;
6787;SDS011;3431;47.966;10.268;2023-08-01T00:31:03;2.47;;;2.28;;
6787;SDS011;3431;47.966;10.268;2023-08-01T00:31:25;2.40;;;2.20;;
6787;SDS011;3431;47.966;10.268;2023-08-01T00:31:47;2.42;;;2.22;;
6787;SDS011;3431;47.966;10.268;2023-08-01T00:32:08;2.30;;;2.10;;
6787;SDS011;3431;47.966;10.268;2023-08-01T00:32:30;2.75;;;2.20;;
6787;SDS011;3431;47.966;10.268;2023-08-01T00:32:52;2.23;;;1.90;;
6787;SDS011;3431;47.966;10.268;2023-08-01T00:33:14;2.50;;;2.15;;
6787;SDS011;3431;47.966;10.268;2023-08-01T00:33:36;2.80;;;2.53;;
6787;SDS011;3431;47.966;10.268;2023-08-01T00:33:57;3.92;;;2.30;;
6787;SDS011;3431;47.966;10.268;2023-08-01T00:34:19;3.03;;;2.30;;
6787;SDS011;3431;47.966;10.268;2023-08-01T00:34:41;2.20;;;2.00;;
6787;SDS011;3431;47.966;10.268;2023-08-01T00:35:03;2.35;;;2.15;;
6787;SDS011;3431;47.966;10.268;2023-08-01T00:35:26;3.75;;;2.30;;
6787;SDS011;3431;47.966;10.268;2023-08-01T00:35:53;2.33;;;2.13;;
6787;SDS011;3431;47.966;10.268;2023-08-01T00:36:14;2.60;;;2.40;;
6787;SDS011;3431;47.966;10.268;2023-08-01T00:36:37;3.27;;;2.20;;
6787;SDS011;3431;47.966;10.268;2023-08-01T00:36:58;2.35;;;2.05;;
6787;SDS011;3431;47.966;10.268;2023-08-01T00:37:20;3.22;;;2.00;;
6787;SDS011;3431;47.966;10.268;2023-08-01T00:37:41;2.72;;;2.22;;
6787;SDS011;3431;47.966;10.268;2023-08-01T00:38:03;2.50;;;2.30;;
6787;SDS011;3431;47.966;10.268;2023-08-01T00:38:24;2.22;;;2.03;;
6787;SDS011;3431;47.966;10.268;2023-08-01T00:38:47;2.28;;;2.08;;
6787;SDS011;3431;47.966;10.268;2023-08-01T00:39:09;2.53;;;2.33;;
6787;SDS011;3431;47.966;10.268;2023-08-01T00:39:32;2.20;;;2.00;;
6787;SDS011;3431;47.966;10.268;2023-08-01T00:39:54;2.55;;;2.20;;
6787;SDS011;3431;47.966;10.268;2023-08-01T00:40:16;2.00;;;1.80;;
6787;SDS011;3431;47.966;10.268;2023-08-01T00:40:38;2.92;;;1.73;;
6787;SDS011;3431;47.966;10.268;2023-08-01T00:41:00;2.83;;;2.38;;
6787;SDS011;3431;47.966;10.268;2023-08-01T00:41:21;2.38;;;2.17;;
6787;SDS011;3431;47.966;10.268;2023-08-01T00:41:43;2.58;;;2.22;;
6787;SDS011;3431;47.966;10.268;2023-08-01T00:42:05;2.63;;;2.20;;
6787;SDS011;3431;47.966;10.268;2023-08-01T00:42:27;2.35;;;2.15;;
6787;SDS011;3431;47.966;10.268;2023-08-01T00:42:49;2.50;;;2.30;;
6787;SDS011;3431;47.966;10.268;2023-08-01T00:43:16;3.40;;;2.33;;
6787;SDS011;3431;47.966;10.268;2023-08-01T00:43:37;2.45;;;2.25;;
6787;SDS011;3431;47.966;10.268;2023-08-01T00:43:59;3.05;;;2.00;;
6787;SDS011;3431;47.966;10.268;2023-08-01T00:44:22;5.22;;;2.15;;
6787;SDS011;3431;47.966;10.268;2023-08-01T00:44:43;3.00;;;2.10;;
6787;SDS011;3431;47.966;10.268;2023-08-01T00:45:05;3.30;;;2.15;;
6787;SDS011;3431;47.966;10.268;2023-08-01T00:45:28;2.60;;;2.40;;
6787;SDS011;3431;47.966;10.268;2023-08-01T00:45:57;3.00;;;2.30;;
6787;SDS011;3431;47.966;10.268;2023-08-01T00:46:22;2.40;;;2.20;;
6787;SDS011;3431;47.966;10.268;2023-08-01T00:46:43;2.30;;;2.10;;
6787;SDS011;3431;47.966;10.268;2023-08-01T00:47:05;2.60;;;2.35;;
6787;SDS011;3431;47.966;10.268;2023-08-01T00:47:27;2.40;;;2.20;;
6787;SDS011;3431;47.966;10.268;2023-08-01T00:47:49;2.22;;;1.85;;
6787;SDS011;3431;47.966;10.268;2023-08-01T00:48:12;2.47;;;2.28;;
6787;SDS011;3431;47.966;10.268;2023-08-01T00:48:34;2.53;;;2.28;;
6787;SDS011;3431;47.966;10.268;2023-08-01T00:48:56;2.47;;;2.28;;
6787;SDS011;3431;47.966;10.268;2023-08-01T00:49:19;2.38;;;2.17;;
6787;SDS011;3431;47.966;10.268;2023-08-01T00:49:41;2.75;;;2.28;;
6787;SDS011;3431;47.966;10.268;2023-08-01T00:50:04;3.00;;;2.13;;
6787;SDS011;3431;47.966;10.268;2023-08-01T00:50:27;2.88;;;2.22;;
6787;SDS011;3431;47.966;10.268;2023-08-01T00:50:49;2.67;;;2.28;;
6787;SDS011;3431;47.966;10.268;2023-08-01T00:51:11;2.42;;;2.22;;
6787;SDS011;3431;47.966;10.268;2023-08-01T00:51:34;2.40;;;2.17;;
6787;SDS011;3431;47.966;10.268;2023-08-01T00:51:56;3.38;;;2.50;;
6787;SDS011;3431;47.966;10.268;2023-08-01T00:52:18;2.60;;;2.40;;
6787;SDS011;3431;47.966;10.268;2023-08-01T00:52:40;3.15;;;2.45;;
6787;SDS011;3431;47.966;10.268;2023-08-01T00:53:03;2.72;;;2.25;;
6787;SDS011;3431;47.966;10.268;2023-08-01T00:53:24;3.13;;;2.45;;
6787;SDS011;3431;47.966;10.268;2023-08-01T00:53:46;3.05;;;2.60;;
6787;SDS011;3431;47.966;10.268;2023-08-01T00:54:08;2.15;;;1.95;;
6787;SDS011;3431;47.966;10.268;2023-08-01T00:54:29;2.13;;;1.92;;
6787;SDS011;3431;47.966;10.268;2023-08-01T00:54:58;2.35;;;2.10;;
6787;SDS011;3431;47.966;10.268;2023-08-01T00:55:19;2.63;;;2.30;;
6787;SDS011;3431;47.966;10.268;2023-08-01T00:55:43;2.53;;;2.22;;
6787;SDS011;3431;47.966;10.268;2023-08-01T00:56:04;2.65;;;2.17;;
6787;SDS011;3431;47.966;10.268;2023-08-01T00:56:26;2.35;;;2.15;;
6787;SDS011;3431;47.966;10.268;2023-08-01T00:56:49;3.00;;;2.20;;
6787;SDS011;3431;47.966;10.268;2023-08-01T00:57:10;2.55;;;2.30;;
6787;SDS011;3431;47.966;10.268;2023-08-01T00:57:32;2.95;;;2.35;;
6787;SDS011;3431;47.966;10.268;2023-08-01T00:57:54;3.40;;;2.20;;
6787;SDS011;3431;47.966;10.268;2023-08-01T00:58:16;2.50;;;2.10;;
6787;SDS011;3431;47.966;10.268;2023-08-01T00:58:37;2.38;;;2.17;;
6787;SDS011;3431;47.966;10.268;2023-08-01T00:59:00;3.35;;;2.47;;
6787;SDS011;3431;47.966;10.268;2023-08-01T00:59:21;2.53;;;2.30;;
6787;SDS011;3431;47.966;10.268;2023-08-01T00:59:43;2.17;;;1.98;;
6787;SDS011;3431;47.966;10.268;2023-08-01T01:00:05;2.70;;;2.40;;
6787;SDS011;3431;47.966;10.268;2023-08-01T01:00:27;2.60;;;2.40;;
6787;SDS011;3431;47.966;10.268;2023-08-01T01:00:50;2.25;;;2.10;;
6787;SDS011;3431;47.966;10.268;2023-08-01T01:01:12;2.47;;;2.10;;
6787;SDS011;3431;47.966;10.268;2023-08-01T01:01:34;3.20;;;2.27;;
6787;SDS011;3431;47.966;10.268;2023-08-01T01:01:55;2.90;;;1.98;;
6787;SDS011;3431;47.966;10.268;2023-08-01T01:02:17;2.30;;;2.00;;
6787;SDS011;3431;47.966;10.268;2023-08-01T01:02:40;3.63;;;2.30;;
6787;SDS011;3431;47.966;10.268;2023-08-01T01:03:01;2.35;;;2.15;;
6787;SDS011;3431;47.966;10.268;2023-08-01T01:03:23;2.67;;;2.20;;
6787;SDS011;3431;47.966;10.268;2023-08-01T01:03:45;2.53;;;2.13;;
6787;SDS011;3431;47.966;10.268;2023-08-01T01:04:07;2.33;;;2.10;;
6787;SDS011;3431;47.966;10.268;2023-08-01T01:04:30;2.40;;;1.98;;
6787;SDS011;3431;47.966;10.268;2023-08-01T01:04:52;2.78;;;2.05;;
6787;SDS011;3431;47.966;10.268;2023-08-01T01:05:13;3.87;;;2.63;;
6787;SDS011;3431;47.966;10.268;2023-08-01T01:05:36;2.35;;;2.15;;
6787;SDS011;3431;47.966;10.268;2023-08-01T01:06:02;2.33;;;2.13;;
6787;SDS011;3431;47.966;10.268;2023-08-01T01:06:31;2.85;;;2.30;;
6787;SDS011;3431;47.966;10.268;2023-08-01T01:06:57;2.50;;;2.30;;
6787;SDS011;3431;47.966;10.268;2023-08-01T01:07:21;2.50;;;2.30;;
6787;SDS011;3431;47.966;10.268;2023-08-01T01:07:44;2.55;;;2.30;;
6787;SDS011;3431;47.966;10.268;2023-08-01T01:08:08;2.55;;;2.35;;
6787;SDS011;3431;47.966;10.268;2023-08-01T01:08:30;2.33;;;2.13;;
6787;SDS011;3431;47.966;10.268;2023-08-01T01:08:51;2.20;;;2.00;;
6787;SDS011;3431;47.966;10.268;2023-08-01T01:09:14;3.53;;;2.00;;
6787;SDS011;3431;47.966;10.268;2023-08-01T01:09:37;4.75;;;2.10;;
6787;SDS011;3431;47.966;10.268;2023-08-01T01:10:00;2.95;;;2.30;;
6787;SDS011;3431;47.966;10.268;2023-08-01T01:10:22;2.78;;;2.05;;
6787;SDS011;3431;47.966;10.268;2023-08-01T01:10:44;2.78;;;2.22;;
6787;SDS011;3431;47.966;10.268;2023-08-01T01:11:05;3.20;;;2.50;;
6787;SDS011;3431;47.966;10.268;2023-08-01T01:11:28;2.90;;;2.45;;
6787;SDS011;3431;47.966;10.268;2023-08-01T01:11:49;2.78;;;2.40;;
6787;SDS011;3431;47.966;10.268;2023-08-01T01:12:12;2.40;;;2.20;;
6787;SDS011;3431;47.966;10.268;2023-08-01T01:12:33;2.30;;;2.10;;
6787;SDS011;3431;47.966;10.268;2023-08-01T01:12:56;2.92;;;2.40;;
6787;SDS011;3431;47.966;10.268;2023-08-01T01:13:17;2.40;;;2.20;;
6787;SDS011;3431;47.966;10.268;2023-08-01T01:13:39;2.40;;;2.20;;
6787;SDS011;3431;47.966;10.268;2023-08-01T01:14:00;2.35;;;2.15;;
6787;SDS011;3431;47.966;10.268;2023-08-01T01:14:23;2.92;;;2.15;;
6787;SDS011;3431;47.966;10.268;2023-08-01T01:14:44;2.30;;;2.10;;
6787;SDS011;3431;47.966;10.268;2023-08-01T01:15:06;2.85;;;2.38;;
6787;SDS011;3431;47.966;10.268;2023-08-01T01:15:28;2.60;;;2.40;;
6787;SDS011;3431;47.966;10.268;2023-08-01T01:15:50;3.45;;;2.53;;
6787;SDS011;3431;47.966;10.268;2023-08-01T01:16:12;2.75;;;2.40;;
6787;SDS011;3431;47.966;10.268;2023-08-01T01:16:35;2.40;;;2.20;;
6787;SDS011;3431;47.966;10.268;2023-08-01T01:16:56;2.40;;;2.17;;
6787;SDS011;3431;47.966;10.268;2023-08-01T01:17:18;2.10;;;1.92;;
6787;SDS011;3431;47.966;10.268;2023-08-01T01:17:39;2.30;;;2.10;;
6787;SDS011;3431;47.966;10.268;2023-08-01T01:18:01;2.40;;;2.20;;
6787;SDS011;3431;47.966;10.268;2023-08-01T01:18:23;2.42;;;2.15;;
6787;SDS011;3431;47.966;10.268;2023-08-01T01:18:45;2.40;;;2.20;;
6787;SDS011;3431;47.966;10.268;2023-08-01T01:19:07;2.50;;;2.30;;
6787;SDS011;3431;47.966;10.268;2023-08-01T01:19:29;2.70;;;2.50;;
6787;SDS011;3431;47.966;10.268;2023-08-01T01:19:51;2.70;;;2.50;;
6787;SDS011;3431;47.966;10.268;2023-08-01T01:20:13;2.38;;;2.17;;
6787;SDS011;3431;47.966;10.268;2023-08-01T01:20:37;3.33;;;2.20;;
6787;SDS011;3431;47.966;10.268;2023-08-01T01:20:58;2.83;;;2.20;;
6787;SDS011;3431;47.966;10.268;2023-08-01T01:21:20;2.30;;;2.10;;
6787;SDS011;3431;47.966;10.268;2023-08-01T01:21:41;2.67;;;2.30;;
6787;SDS011;3431;47.966;10.268;2023-08-01T01:22:03;2.72;;;2.53;;
6787;SDS011;3431;47.966;10.268;2023-08-01T01:22:27;3.20;;;2.40;;
6787;SDS011;3431;47.966;10.268;2023-08-01T01:22:51;3.05;;;2.33;;
6787;SDS011;3431;47.966;10.268;2023-08-01T01:23:13;3.90;;;2.40;;
6787;SDS011;3431;47.966;10.268;2023-08-01T01:23:35;3.95;;;2.40;;
6787;SDS011;3431;47.966;10.268;2023-08-01T01:23:57;2.92;;;2.20;;
6787;SDS011;3431;47.966;10.268;2023-08-01T01:24:20;2.63;;;2.42;;
6787;SDS011;3431;47.966;10.268;2023-08-01T01:24:43;2.60;;;2.20;;
6787;SDS011;3431;47.966;10.268;2023-08-01T01:25:07;2.58;;;2.30;;
6787;SDS011;3431;47.966;10.268;2023-08-01T01:25:29;2.10;;;1.90;;
6787;SDS011;3431;47.966;10.268;2023-08-01T01:25:51;2.85;;;1.98;;
6787;SDS011;3431;47.966;10.268;2023-08-01T01:26:13;2.30;;;2.10;;
6787;SDS011;3431;47.966;10.268;2023-08-01T01:26:37;2.50;;;2.28;;
6787;SDS011;3431;47.966;10.268;2023-08-01T01:27:02;3.30;;;2.40;;
6787;SDS011;3431;47.966;10.268;2023-08-01T01:27:25;3.78;;;2.45;;
6787;SDS011;3431;47.966;10.268;2023-08-01T01:27:48;3.10;;;2.00;;
6787;SDS011;3431;47.966;10.268;2023-08-01T01:28:12;3.33;;;2.33;;
6787;SDS011;3431;47.966;10.268;2023-08-01T01:28:34;2.40;;;2.20;;
6787;SDS011;3431;47.966;10.268;2023-08-01T01:28:58;2.50;;;2.05;;
6787;SDS011;3431;47.966;10.268;2023-08-01T01:29:20;2.97;;;2.38;;
6787;SDS011;3431;47.966;10.268;2023-08-01T01:29:43;3.60;;;2.40;;
6787;SDS011;3431;47.966;10.268;2023-08-01T01:30:06;2.75;;;2.10;;
6787;SDS011;3431;47.966;10.268;2023-08-01T01:30:29;3.15;;;2.10;;
6787;SDS011;3431;47.966;10.268;2023-08-01T01:30:51;3.35;;;2.10;;
6787;SDS011;3431;47.966;10.268;2023-08-01T01:31:14;2.90;;;2.30;;
6787;SDS011;3431;47.966;10.268;2023-08-01T01:31:36;2.83;;;2.45;;
6787;SDS011;3431;47.966;10.268;2023-08-01T01:31:58;2.30;;;2.10;;
6787;SDS011;3431;47.966;10.268;2023-08-01T01:32:21;2.50;;;2.28;;
6787;SDS011;3431;47.966;10.268;2023-08-01T01:32:43;3.45;;;2.45;;
6787;SDS011;3431;47.966;10.268;2023-08-01T01:33:07;2.85;;;2.35;;
6787;SDS011;3431;47.966;10.268;2023-08-01T01:33:29;2.42;;;2.20;;
6787;SDS011;3431;47.966;10.268;2023-08-01T01:33:51;2.70;;;2.10;;
6787;SDS011;3431;47.966;10.268;2023-08-01T01:34:13;3.55;;;2.45;;
6787;SDS011;3431;47.966;10.268;2023-08-01T01:34:35;2.78;;;2.45;;
6787;SDS011;3431;47.966;10.268;2023-08-01T01:34:57;2.33;;;2.10;;
6787;SDS011;3431;47.966;10.268;2023-08-01T01:35:20;2.65;;;2.38;;
6787;SDS011;3431;47.966;10.268;2023-08-01T01:35:43;2.87;;;2.40;;
6787;SDS011;3431;47.966;10.268;2023-08-01T01:36:04;2.60;;;2.35;;
6787;SDS011;3431;47.966;10.268;2023-08-01T01:36:26;2.58;;;2.25;;
6787;SDS011;3431;47.966;10.268;2023-08-01T01:36:47;2.55;;;2.30;;
6787;SDS011;3431;47.966;10.268;2023-08-01T01:37:09;3.53;;;2.30;;
6787;SDS011;3431;47.966;10.268;2023-08-01T01:37:32;2.63;;;2.30;;
6787;SDS011;3431;47.966;10.268;2023-08-01T01:37:53;2.90;;;2.33;;
6787;SDS011;3431;47.966;10.268;2023-08-01T01:38:16;3.20;;;2.47;;
6787;SDS011;3431;47.966;10.268;2023-08-01T01:38:38;2.45;;;2.20;;
6787;SDS011;3431;47.966;10.268;2023-08-01T01:39:00;2.70;;;2.17;;
6787;SDS011;3431;47.966;10.268;2023-08-01T01:39:22;2.53;;;2.33;;
6787;SDS011;3431;47.966;10.268;2023-08-01T01:39:44;2.42;;;2.22;;
6787;SDS011;3431;47.966;10.268;2023-08-01T01:40:07;2.57;;;2.30;;
6787;SDS011;3431;47.966;10.268;2023-08-01T01:40:29;2.40;;;2.20;;
6787;SDS011;3431;47.966;10.268;2023-08-01T01:40:51;2.50;;;2.30;;
6787;SDS011;3431;47.966;10.268;2023-08-01T01:41:13;2.65;;;2.42;;
6787;SDS011;3431;47.966;10.268;2023-08-01T01:41:34;2.92;;;2.38;;
6787;SDS011;3431;47.966;10.268;2023-08-01T01:41:56;2.72;;;2.53;;
6787;SDS011;3431;47.966;10.268;2023-08-01T01:42:18;2.88;;;2.63;;
6787;SDS011;3431;47.966;10.268;2023-08-01T01:42:39;2.83;;;2.55;;
6787;SDS011;3431;47.966;10.268;2023-08-01T01:43:02;3.00;;;2.55;;
6787;SDS011;3431;47.966;10.268;2023-08-01T01:43:24;3.33;;;2.10;;
6787;SDS011;3431;47.966;10.268;2023-08-01T01:43:45;2.67;;;2.45;;
6787;SDS011;3431;47.966;10.268;2023-08-01T01:44:07;3.63;;;2.85;;
6787;SDS011;3431;47.966;10.268;2023-08-01T01:44:29;2.97;;;2.67;;
6787;SDS011;3431;47.966;10.268;2023-08-01T01:44:51;3.30;;;2.63;;
6787;SDS011;3431;47.966;10.268;2023-08-01T01:45:12;3.03;;;2.67;;
6787;SDS011;3431;47.966;10.268;2023-08-01T01:45:34;3.28;;;2.63;;
6787;SDS011;3431;47.966;10.268;2023-08-01T01:45:56;3.20;;;2.67;;
6787;SDS011;3431;47.966;10.268;2023-08-01T01:46:18;2.80;;;2.60;;
6787;SDS011;3431;47.966;10.268;2023-08-01T01:46:40;2.67;;;2.47;;
6787;SDS011;3431;47.966;10.268;2023-08-01T01:47:02;2.40;;;2.20;;
6787;SDS011;3431;47.966;10.268;2023-08-01T01:47:23;3.70;;;2.60;;
6787;SDS011;3431;47.966;10.268;2023-08-01T01:47:45;2.50;;;2.30;;
6787;SDS011;3431;47.966;10.268;2023-08-01T01:48:06;2.40;;;2.20;;
6787;SDS011;3431;47.966;10.268;2023-08-01T01:48:29;2.75;;;2.55;;
6787;SDS011;3431;47.966;10.268;2023-08-01T01:48:51;2.78;;;2.50;;
6787;SDS011;3431;47.966;10.268;2023-08-01T01:49:12;2.65;;;2.30;;
6787;SDS011;3431;47.966;10.268;2023-08-01T01:49:34;2.60;;;2.40;;
6787;SDS011;3431;47.966;10.268;2023-08-01T01:49:55;3.05;;;2.72;;
6787;SDS011;3431;47.966;10.268;2023-08-01T01:50:17;3.00;;;2.60;;
6787;SDS011;3431;47.966;10.268;2023-08-01T01:50:39;3.42;;;2.75;;
6787;SDS011;3431;47.966;10.268;2023-08-01T01:51:02;3.35;;;2.80;;
6787;SDS011;3431;47.966;10.268;2023-08-01T01:51:25;3.22;;;2.92;;
6787;SDS011;3431;47.966;10.268;2023-08-01T01:51:47;3.22;;;2.75;;
6787;SDS011;3431;47.966;10.268;2023-08-01T01:52:09;2.90;;;2.60;;
6787;SDS011;3431;47.966;10.268;2023-08-01T01:52:31;2.70;;;2.50;;
6787;SDS011;3431;47.966;10.268;2023-08-01T01:52:53;2.70;;;2.50;;
6787;SDS011;3431;47.966;10.268;2023-08-01T01:53:15;2.90;;;2.42;;
6787;SDS011;3431;47.966;10.268;2023-08-01T01:53:36;3.38;;;2.33;;
6787;SDS011;3431;47.966;10.268;2023-08-01T01:53:58;2.85;;;2.50;;
6787;SDS011;3431;47.966;10.268;2023-08-01T01:54:21;3.38;;;2.80;;
6787;SDS011;3431;47.966;10.268;2023-08-01T01:54:42;3.05;;;2.63;;
6787;SDS011;3431;47.966;10.268;2023-08-01T01:55:04;2.63;;;2.43;;
6787;SDS011;3431;47.966;10.268;2023-08-01T01:55:27;2.50;;;2.30;;
6787;SDS011;3431;47.966;10.268;2023-08-01T01:55:49;3.70;;;2.70;;
6787;SDS011;3431;47.966;10.268;2023-08-01T01:56:10;2.80;;;2.40;;
6787;SDS011;3431;47.966;10.268;2023-08-01T01:56:33;2.78;;;2.35;;
6787;SDS011;3431;47.966;10.268;2023-08-01T01:56:56;2.42;;;2.22;;
6787;SDS011;3431;47.966;10.268;2023-08-01T01:57:18;3.97;;;2.80;;
6787;SDS011;3431;47.966;10.268;2023-08-01T01:57:39;3.17;;;2.88;;
6787;SDS011;3431;47.966;10.268;2023-08-01T01:58:01;3.00;;;2.70;;
6787;SDS011;3431;47.966;10.268;2023-08-01T01:58:24;2.92;;;2.63;;
6787;SDS011;3431;47.966;10.268;2023-08-01T01:58:45;3.22;;;2.72;;
6787;SDS011;3431;47.966;10.268;2023-08-01T01:59:07;2.85;;;2.53;;
6787;SDS011;3431;47.966;10.268;2023-08-01T01:59:28;2.97;;;2.67;;
6787;SDS011;3431;47.966;10.268;2023-08-01T01:59:50;3.00;;;2.70;;
6787;SDS011;3431;47.966;10.268;2023-08-01T02:00:12;2.90;;;2.50;;
6787;SDS011;3431;47.966;10.268;2023-08-01T02:00:34;3.15;;;2.40;;
6787;SDS011;3431;47.966;10.268;2023-08-01T02:00:56;2.78;;;2.45;;
6787;SDS011;3431;47.966;10.268;2023-08-01T02:01:17;3.17;;;2.58;;
6787;SDS011;3431;47.966;10.268;2023-08-01T02:01:39;2.92;;;2.58;;
6787;SDS011;3431;47.966;10.268;2023-08-01T02:02:01;2.60;;;2.40;;
6787;SDS011;3431;47.966;10.268;2023-08-01T02:02:24;2.60;;;2.40;;
6787;SDS011;3431;47.966;10.268;2023-08-01T02:02:47;2.60;;;2.40;;
6787;SDS011;3431;47.966;10.268;2023-08-01T02:03:08;3.05;;;2.60;;
6787;SDS011;3431;47.966;10.268;2023-08-01T02:03:31;3.03;;;2.40;;
6787;SDS011;3431;47.966;10.268;2023-08-01T02:03:53;6.00;;;2.65;;
6787;SDS011;3431;47.966;10.268;2023-08-01T02:04:14;3.23;;;2.53;;
6787;SDS011;3431;47.966;10.268;2023-08-01T02:04:37;2.20;;;2.00;;
6787;SDS011;3431;47.966;10.268;2023-08-01T02:04:59;2.55;;;2.35;;
6787;SDS011;3431;47.966;10.268;2023-08-01T02:05:20;2.72;;;2.53;;
6787;SDS011;3431;47.966;10.268;2023-08-01T02:05:42;2.70;;;2.47;;
6787;SDS011;3431;47.966;10.268;2023-08-01T02:06:05;3.28;;;2.67;;
6787;SDS011;3431;47.966;10.268;2023-08-01T02:06:27;2.67;;;2.45;;
6787;SDS011;3431;47.966;10.268;2023-08-01T02:06:49;2.50;;;2.30;;
6787;SDS011;3431;47.966;10.268;2023-08-01T02:07:11;2.60;;;2.40;;
6787;SDS011;3431;47.966;10.268;2023-08-01T02:07:33;2.53;;;2.20;;
6787;SDS011;3431;47.966;10.268;2023-08-01T02:07:55;3.25;;;2.50;;
6787;SDS011;3431;47.966;10.268;2023-08-01T02:08:18;2.90;;;2.60;;
6787;SDS011;3431;47.966;10.268;2023-08-01T02:08:39;2.78;;;2.50;;
6787;SDS011;3431;47.966;10.268;2023-08-01T02:09:01;3.40;;;2.78;;
6787;SDS011;3431;47.966;10.268;2023-08-01T02:09:24;4.35;;;3.00;;
6787;SDS011;3431;47.966;10.268;2023-08-01T02:09:46;3.10;;;2.50;;
6787;SDS011;3431;47.966;10.268;2023-08-01T02:10:09;3.65;;;2.40;;
6787;SDS011;3431;47.966;10.268;2023-08-01T02:10:30;3.40;;;2.47;;
6787;SDS011;3431;47.966;10.268;2023-08-01T02:10:52;3.47;;;2.20;;
6787;SDS011;3431;47.966;10.268;2023-08-01T02:11:15;2.40;;;2.20;;
6787;SDS011;3431;47.966;10.268;2023-08-01T02:11:37;2.47;;;2.28;;
6787;SDS011;3431;47.966;10.268;2023-08-01T02:11:59;2.60;;;2.30;;
6787;SDS011;3431;47.966;10.268;2023-08-01T02:12:21;2.63;;;2.30;;
6787;SDS011;3431;47.966;10.268;2023-08-01T02:12:43;2.80;;;2.50;;
6787;SDS011;3431;47.966;10.268;2023-08-01T02:13:04;3.58;;;2.75;;
6787;SDS011;3431;47.966;10.268;2023-08-01T02:13:26;4.28;;;2.80;;
6787;SDS011;3431;47.966;10.268;2023-08-01T02:13:50;3.20;;;2.47;;
6787;SDS011;3431;47.966;10.268;2023-08-01T02:14:13;2.75;;;2.30;;
6787;SDS011;3431;47.966;10.268;2023-08-01T02:14:34;2.38;;;2.17;;
6787;SDS011;3431;47.966;10.268;2023-08-01T02:14:56;2.90;;;2.38;;
6787;SDS011;3431;47.966;10.268;2023-08-01T02:15:18;3.30;;;2.17;;
6787;SDS011;3431;47.966;10.268;2023-08-01T02:15:39;2.88;;;2.22;;